createdAt,value
2022-11-10T00:01:45.635Z,13.27
2022-11-10T00:03:44.080Z,13.27
2022-11-10T00:05:44.107Z,13.27
2022-11-10T00:07:43.882Z,13.27
2022-11-10T00:09:44.899Z,13.27
2022-11-10T00:11:43.788Z,13.27
2022-11-10T00:13:43.387Z,13.27
2022-11-10T00:15:43.185Z,13.27
2022-11-10T00:17:43.183Z,13.27
2022-11-10T00:19:43.267Z,13.27
2022-11-10T00:21:43.522Z,13.27
2022-11-10T00:23:45.672Z,13.27
2022-11-10T00:25:43.031Z,13.27
2022-11-10T00:27:43.404Z,13.27
2022-11-10T00:29:42.541Z,13.27
2022-11-10T00:31:43.445Z,13.27
2022-11-10T00:33:43.599Z,13.27
2022-11-10T00:35:42.572Z,13.27
2022-11-10T00:37:42.956Z,13.27
2022-11-10T00:39:42.902Z,13.27
2022-11-10T00:41:42.947Z,13.27
2022-11-10T00:43:49.187Z,13.27
2022-11-10T00:45:43.158Z,13.27
2022-11-10T00:47:43.051Z,13.27
2022-11-10T00:49:42.741Z,13.27
2022-11-10T00:51:43.073Z,13.27
2022-11-10T00:53:44.004Z,13.27
2022-11-10T00:55:43.458Z,13.27
2022-11-10T00:57:43.123Z,13.27
2022-11-10T00:59:43.409Z,13.27
2022-11-10T01:01:46.248Z,13.27
2022-11-10T01:03:43.512Z,13.27
2022-11-10T01:05:43.228Z,13.27
2022-11-10T01:07:43.347Z,13.27
2022-11-10T01:09:43.493Z,13.27
2022-11-10T01:11:42.941Z,13.27
2022-11-10T01:13:43.865Z,13.27
2022-11-10T01:15:50.309Z,13.27
2022-11-10T01:17:42.820Z,13.27
2022-11-10T01:19:42.713Z,13.27
2022-11-10T01:21:43.293Z,13.27
2022-11-10T01:23:43.325Z,13.27
2022-11-10T01:25:43.191Z,13.27
2022-11-10T01:27:43.020Z,13.27
2022-11-10T01:29:42.724Z,13.27
2022-11-10T01:31:43.426Z,13.27
2022-11-10T01:33:43.917Z,13.27
2022-11-10T01:35:43.224Z,13.27
2022-11-10T01:37:42.723Z,13.27
2022-11-10T01:39:43.334Z,13.27
2022-11-10T01:41:43.639Z,13.27
2022-11-10T01:43:43.567Z,13.27
2022-11-10T01:45:43.205Z,13.27
2022-11-10T01:47:42.910Z,13.27
2022-11-10T01:49:42.832Z,13.27
2022-11-10T01:51:43.456Z,13.27
2022-11-10T01:53:43.430Z,13.27
2022-11-10T01:55:43.585Z,13.27
2022-11-10T01:57:42.890Z,13.27
2022-11-10T01:59:43.429Z,13.27
2022-11-10T02:01:46.502Z,13.27
2022-11-10T02:03:43.496Z,13.27
2022-11-10T02:05:43.211Z,13.27
2022-11-10T02:07:44.023Z,13.27
2022-11-10T02:09:42.895Z,13.27
2022-11-10T02:11:42.620Z,13.27
2022-11-10T02:13:43.406Z,13.27
2022-11-10T02:15:43.233Z,13.27
2022-11-10T02:17:43.408Z,13.27
2022-11-10T02:19:43.340Z,13.27
2022-11-10T02:21:42.964Z,13.27
2022-11-10T02:23:43.346Z,13.27
2022-11-10T02:25:43.099Z,13.27
2022-11-10T02:27:43.330Z,13.27
2022-11-10T02:29:43.077Z,13.27
2022-11-10T02:31:46.839Z,13.27
2022-11-10T02:33:43.578Z,13.27
2022-11-10T02:35:43.261Z,13.27
2022-11-10T02:37:43.369Z,13.27
2022-11-10T02:39:43.320Z,13.27
2022-11-10T02:41:42.716Z,13.27
2022-11-10T02:43:43.545Z,13.27
2022-11-10T02:45:43.046Z,13.27
2022-11-10T02:47:42.977Z,13.27
2022-11-10T02:49:43.277Z,13.27
2022-11-10T02:51:43.076Z,13.27
2022-11-10T02:53:43.322Z,13.27
2022-11-10T02:55:43.302Z,13.27
2022-11-10T02:57:42.781Z,13.27
2022-11-10T02:59:43.254Z,13.27
2022-11-10T03:01:46.216Z,13.27
2022-11-10T03:03:48.596Z,13.27
2022-11-10T03:05:43.328Z,13.27
2022-11-10T03:07:43.115Z,13.27
2022-11-10T03:09:43.249Z,13.27
2022-11-10T03:11:43.930Z,13.27
2022-11-10T03:14:11.364Z,13.27
2022-11-10T03:15:44.243Z,13.27
2022-11-10T03:17:43.107Z,13.27
2022-11-10T03:19:42.654Z,13.27
2022-11-10T03:21:43.126Z,13.27
2022-11-10T03:23:43.286Z,13.27
2022-11-10T03:25:43.120Z,13.27
2022-11-10T03:27:43.561Z,13.27
2022-11-10T03:29:42.717Z,13.27
2022-11-10T03:31:43.031Z,13.27
2022-11-10T03:33:43.963Z,13.27
2022-11-10T03:35:48.140Z,13.27
2022-11-10T03:37:43.176Z,13.27
2022-11-10T03:39:43.474Z,13.27
2022-11-10T03:42:17.024Z,13.27
2022-11-10T03:43:43.585Z,13.27
2022-11-10T03:45:42.602Z,13.27
2022-11-10T03:47:47.901Z,13.27
2022-11-10T03:49:49.623Z,13.27
2022-11-10T03:51:43.294Z,13.27
2022-11-10T03:53:44.066Z,13.27
2022-11-10T03:55:48.530Z,13.27
2022-11-10T03:57:42.878Z,13.27
2022-11-10T03:59:42.532Z,13.27
2022-11-10T04:01:47.050Z,13.27
2022-11-10T04:03:48.785Z,13.27
2022-11-10T04:05:43.111Z,13.27
2022-11-10T04:07:43.438Z,13.27
2022-11-10T04:09:43.378Z,13.27
2022-11-10T04:11:42.770Z,13.27
2022-11-10T04:13:44.629Z,13.27
2022-11-10T04:15:43.481Z,13.27
2022-11-10T04:17:42.567Z,13.27
2022-11-10T04:19:43.571Z,13.27
2022-11-10T04:21:42.675Z,13.27
2022-11-10T04:23:44.264Z,13.27
2022-11-10T04:25:43.040Z,13.27
2022-11-10T04:27:43.131Z,13.27
2022-11-10T04:29:42.820Z,13.27
2022-11-10T04:31:42.945Z,13.27
2022-11-10T04:33:43.756Z,13.27
2022-11-10T04:35:42.675Z,13.27
2022-11-10T04:37:43.476Z,13.27
2022-11-10T04:39:43.005Z,13.27
2022-11-10T04:41:42.896Z,13.27
2022-11-10T04:43:44.929Z,13.27
2022-11-10T04:45:42.829Z,13.27
2022-11-10T04:47:45.948Z,13.27
2022-11-10T04:49:42.757Z,13.27
2022-11-10T04:51:43.736Z,13.27
2022-11-10T04:53:44.196Z,13.27
2022-11-10T04:55:43.146Z,13.27
2022-11-10T04:57:43.382Z,13.27
2022-11-10T04:59:42.952Z,13.27
2022-11-10T05:01:47.074Z,13.27
2022-11-10T05:03:47.826Z,13.27
2022-11-10T05:05:43.578Z,13.27
2022-11-10T05:07:43.381Z,13.27
2022-11-10T05:09:43.230Z,13.27
2022-11-10T05:11:43.038Z,13.27
2022-11-10T05:13:43.092Z,13.27
2022-11-10T05:15:43.314Z,13.27
2022-11-10T05:17:42.901Z,13.27
2022-11-10T05:19:42.928Z,13.27
2022-11-10T05:21:43.316Z,13.27
2022-11-10T05:23:46.143Z,13.27
2022-11-10T05:25:43.451Z,13.27
2022-11-10T05:27:42.652Z,13.27
2022-11-10T05:29:43.006Z,13.27
2022-11-10T05:31:45.852Z,13.27
2022-11-10T05:33:43.949Z,13.27
2022-11-10T05:35:42.819Z,13.27
2022-11-10T05:37:42.829Z,13.27
2022-11-10T05:39:49.622Z,13.27
2022-11-10T05:41:43.588Z,13.27
2022-11-10T05:43:43.480Z,13.27
2022-11-10T05:45:42.887Z,13.27
2022-11-10T05:47:43.356Z,13.27
2022-11-10T05:49:43.567Z,13.27
2022-11-10T05:51:43.169Z,13.27
2022-11-10T05:53:47.486Z,13.27
2022-11-10T05:55:42.756Z,13.27
2022-11-10T05:57:43.130Z,13.27
2022-11-10T05:59:43.651Z,13.27
2022-11-10T06:01:46.018Z,13.27
2022-11-10T06:03:44.672Z,13.27
2022-11-10T06:05:43.802Z,13.27
2022-11-10T06:07:43.690Z,13.27
2022-11-10T06:09:43.303Z,13.27
2022-11-10T06:11:43.412Z,13.27
2022-11-10T06:13:44.267Z,13.27
2022-11-10T06:15:49.063Z,13.27
2022-11-10T06:17:43.139Z,13.27
2022-11-10T06:19:43.869Z,13.27
2022-11-10T06:21:43.378Z,13.27
2022-11-10T06:23:49.267Z,13.27
2022-11-10T06:25:43.926Z,13.27
2022-11-10T06:27:43.129Z,13.27
2022-11-10T06:29:49.428Z,13.27
2022-11-10T06:31:42.481Z,13.27
2022-11-10T06:33:43.306Z,13.27
2022-11-10T06:35:45.926Z,13.27
2022-11-10T06:37:42.746Z,13.27
2022-11-10T06:39:43.284Z,13.27
2022-11-10T06:41:47.978Z,13.27
2022-11-10T06:43:44.190Z,13.27
2022-11-10T06:45:42.709Z,13.27
2022-11-10T06:47:49.828Z,13.27
2022-11-10T06:49:43.570Z,13.27
2022-11-10T06:51:43.433Z,13.27
2022-11-10T06:53:49.303Z,13.27
2022-11-10T06:55:42.963Z,13.27
2022-11-10T06:57:43.316Z,13.27
2022-11-10T06:59:43.201Z,13.27
2022-11-10T07:01:46.297Z,13.27
2022-11-10T07:04:05.101Z,13.27
2022-11-10T07:06:00.711Z,13.27
2022-11-10T07:07:43.792Z,13.27
2022-11-10T07:09:42.798Z,13.27
2022-11-10T07:11:48.497Z,13.27
2022-11-10T07:13:44.081Z,13.27
2022-11-10T07:15:43.000Z,13.27
2022-11-10T07:17:43.548Z,13.27
2022-11-10T07:19:43.214Z,13.27
2022-11-10T07:21:43.323Z,13.27
2022-11-10T07:23:51.116Z,13.27
2022-11-10T07:25:43.528Z,13.27
2022-11-10T07:27:42.995Z,13.27
2022-11-10T07:29:47.251Z,13.27
2022-11-10T07:31:43.892Z,13.27
2022-11-10T07:33:44.305Z,13.27
2022-11-10T07:35:43.180Z,13.27
2022-11-10T07:37:43.051Z,13.27
2022-11-10T07:39:43.249Z,13.27
2022-11-10T07:41:43.532Z,13.27
2022-11-10T07:43:43.718Z,13.27
2022-11-10T07:45:43.218Z,13.27
2022-11-10T07:47:42.821Z,13.27
2022-11-10T07:49:42.959Z,13.27
2022-11-10T07:51:42.772Z,13.27
2022-11-10T07:53:43.618Z,13.27
2022-11-10T07:55:43.186Z,13.27
2022-11-10T07:57:42.843Z,13.27
2022-11-10T07:59:43.131Z,13.27
2022-11-10T08:01:46.724Z,13.27
2022-11-10T08:03:44.442Z,13.27
2022-11-10T08:05:43.525Z,13.27
2022-11-10T08:07:45.231Z,13.27
2022-11-10T08:09:43.845Z,13.27
2022-11-10T08:11:42.873Z,13.27
2022-11-10T08:13:44.285Z,13.27
2022-11-10T08:15:43.128Z,13.27
2022-11-10T08:17:43.492Z,13.27
2022-11-10T08:19:43.366Z,13.27
2022-11-10T08:21:43.321Z,13.27
2022-11-10T08:23:43.561Z,13.27
2022-11-10T08:25:46.691Z,13.27
2022-11-10T08:27:43.520Z,13.27
2022-11-10T08:29:42.851Z,13.27
2022-11-10T08:31:50.250Z,13.27
2022-11-10T08:33:44.133Z,13.27
2022-11-10T08:35:42.590Z,13.27
2022-11-10T08:37:42.879Z,13.27
2022-11-10T08:40:11.759Z,13.27
2022-11-10T08:41:43.112Z,13.27
2022-11-10T08:43:44.186Z,13.27
2022-11-10T08:45:46.809Z,13.27
2022-11-10T08:47:43.230Z,13.27
2022-11-10T08:49:43.166Z,13.27
2022-11-10T08:51:50.086Z,13.27
2022-11-10T08:53:44.150Z,13.27
2022-11-10T08:55:43.268Z,13.27
2022-11-10T08:57:42.980Z,13.27
2022-11-10T08:59:56.267Z,13.27
2022-11-10T09:01:46.076Z,13.27
2022-11-10T09:03:43.563Z,13.27
2022-11-10T09:05:43.400Z,13.27
2022-11-10T09:07:43.310Z,13.27
2022-11-10T09:09:43.135Z,13.27
2022-11-10T09:11:48.832Z,13.27
2022-11-10T09:13:51.773Z,13.27
2022-11-10T09:15:43.101Z,13.27
2022-11-10T09:17:43.476Z,13.27
2022-11-10T09:19:43.199Z,13.27
2022-11-10T09:21:43.348Z,13.27
2022-11-10T09:23:43.242Z,13.27
2022-11-10T09:25:50.052Z,13.27
2022-11-10T09:27:42.810Z,13.27
2022-11-10T09:29:42.903Z,13.27
2022-11-10T09:31:48.070Z,13.27
2022-11-10T09:33:43.716Z,13.27
2022-11-10T09:35:49.430Z,13.27
2022-11-10T09:37:43.140Z,13.27
2022-11-10T09:39:43.699Z,13.27
2022-11-10T09:41:43.495Z,13.27
2022-11-10T09:43:43.478Z,13.27
2022-11-10T09:45:50.299Z,13.27
2022-11-10T09:48:19.397Z,262.7
2022-11-10T09:49:43.455Z,175.59
2022-11-10T09:51:48.182Z,175.59
2022-11-10T09:53:43.319Z,175.59
2022-11-10T09:55:43.483Z,17.25
2022-11-10T09:57:48.598Z,17.25
2022-11-10T09:59:43.249Z,17.25
2022-11-10T10:01:45.729Z,6.67
2022-11-10T10:03:42.805Z,6.67
2022-11-10T10:05:48.436Z,6.67
2022-11-10T10:08:18.348Z,1522.66
2022-11-10T10:09:43.612Z,1522.66
2022-11-10T10:11:47.579Z,1522.66
2022-11-10T10:13:43.121Z,3.08
2022-11-10T10:15:48.150Z,3.08
2022-11-10T10:17:52.853Z,3.08
2022-11-10T10:19:43.371Z,2.52
2022-11-10T10:21:43.340Z,2.52
2022-11-10T10:24:22.286Z,2.22
2022-11-10T10:25:57.795Z,2.2
2022-11-10T10:27:42.786Z,2.2
2022-11-10T10:29:48.765Z,2.2
2022-11-10T10:31:43.032Z,713.98
2022-11-10T10:33:43.205Z,713.98
2022-11-10T10:35:42.524Z,713.98
2022-11-10T10:37:43.021Z,659.47
2022-11-10T10:39:43.848Z,659.47
2022-11-10T10:41:46.652Z,659.47
2022-11-10T10:43:43.022Z,616.36
2022-11-10T10:45:43.546Z,616.36
2022-11-10T10:47:43.691Z,616.36
2022-11-10T10:50:13.894Z,583.34
2022-11-10T10:51:42.748Z,583.34
2022-11-10T10:53:43.295Z,583.34
2022-11-10T10:55:43.310Z,1.51
2022-11-10T10:57:43.280Z,1.51
2022-11-10T10:59:44.494Z,1.51
2022-11-10T11:01:45.864Z,551.59
2022-11-10T11:03:49.584Z,551.59
2022-11-10T11:05:43.473Z,551.59
2022-11-10T11:07:43.603Z,543.85
2022-11-10T11:09:45.132Z,543.85
2022-11-10T11:11:42.993Z,543.85
2022-11-10T11:13:43.023Z,1.47
2022-11-10T11:15:42.842Z,1.47
2022-11-10T11:17:43.483Z,1.47
2022-11-10T11:19:43.349Z,528.59
2022-11-10T11:21:43.002Z,528.59
2022-11-10T11:23:42.693Z,528.59
2022-11-10T11:25:43.296Z,484.61
2022-11-10T11:27:42.662Z,484.61
2022-11-10T11:29:43.747Z,484.61
2022-11-10T11:31:43.504Z,1.29
2022-11-10T11:33:43.091Z,1.29
2022-11-10T11:35:43.217Z,1.29
2022-11-10T11:37:49.124Z,1.27
2022-11-10T11:39:43.681Z,1.27
2022-11-10T11:41:42.629Z,1.27
2022-11-10T11:43:42.806Z,1.27
2022-11-10T11:45:43.116Z,1.27
2022-11-10T11:47:45.597Z,1.27
2022-11-10T11:49:43.730Z,1.27
2022-11-10T11:51:42.750Z,1.27
2022-11-10T11:53:42.995Z,1.27
2022-11-10T11:55:43.521Z,1.27
2022-11-10T11:57:51.019Z,1.27
2022-11-10T11:59:43.340Z,1.27
2022-11-10T12:01:45.872Z,1.27
2022-11-10T12:03:49.500Z,1.27
2022-11-10T12:05:43.503Z,1.27
2022-11-10T12:07:43.456Z,1.27
2022-11-10T12:09:45.947Z,1.27
2022-11-10T12:11:50.803Z,1.27
2022-11-10T12:13:43.268Z,1.27
2022-11-10T12:15:43.524Z,1.27
2022-11-10T12:17:43.389Z,1.27
2022-11-10T12:19:46.522Z,1.27
2022-11-10T12:21:43.418Z,1.27
2022-11-10T12:23:43.156Z,1.27
2022-11-10T12:25:50.520Z,1.27
2022-11-10T12:27:43.439Z,1.27
2022-11-10T12:29:44.231Z,1.27
2022-11-10T12:31:47.177Z,1.27
2022-11-10T12:33:43.087Z,1.27
2022-11-10T12:35:43.215Z,1.27
2022-11-10T12:37:50.294Z,1.27
2022-11-10T12:39:45.316Z,1.27
2022-11-10T12:41:49.275Z,1.27
2022-11-10T12:43:43.504Z,6717.52
2022-11-10T12:45:43.128Z,6717.52
2022-11-10T12:47:48.221Z,6717.52
2022-11-10T12:49:43.730Z,5.03
2022-11-10T12:51:43.163Z,5.03
2022-11-10T12:53:43.361Z,5.03
2022-11-10T12:55:47.113Z,2.77
2022-11-10T12:57:43.493Z,2.77
2022-11-10T12:59:43.477Z,2.77
2022-11-10T13:01:53.188Z,761.83
2022-11-10T13:03:43.038Z,761.83
2022-11-10T13:05:42.639Z,761.83
2022-11-10T13:07:47.669Z,1.74
2022-11-10T13:09:43.797Z,1.74
2022-11-10T13:11:42.930Z,1.74
2022-11-10T13:13:43.153Z,551.59
2022-11-10T13:15:43.028Z,551.59
2022-11-10T13:17:43.072Z,551.59
2022-11-10T13:19:43.604Z,521.07
2022-11-10T13:22:11.956Z,521.07
2022-11-10T13:23:44.290Z,521.07
2022-11-10T13:25:44.045Z,1.33
2022-11-10T13:27:43.117Z,1.33
2022-11-10T13:29:43.326Z,1.33
2022-11-10T13:31:42.994Z,470.53
2022-11-10T13:33:42.587Z,470.53
2022-11-10T13:35:43.178Z,470.53
2022-11-10T13:37:43.586Z,470.53
2022-11-10T13:39:43.804Z,470.53
2022-11-10T13:41:42.809Z,470.53
2022-11-10T13:43:43.609Z,470.53
2022-11-10T13:45:43.296Z,470.53
2022-11-10T13:47:43.404Z,470.53
2022-11-10T13:49:49.343Z,470.53
2022-11-10T13:51:43.210Z,470.53
2022-11-10T13:53:42.909Z,470.53
2022-11-10T13:55:49.823Z,470.53
2022-11-10T13:57:43.333Z,470.53
2022-11-10T13:59:44.428Z,470.53
2022-11-10T14:01:45.819Z,470.53
2022-11-10T14:03:43.681Z,470.53
2022-11-10T14:05:43.790Z,470.53
2022-11-10T14:07:43.380Z,470.53
2022-11-10T14:09:44.189Z,470.53
2022-11-10T14:11:48.579Z,470.53
2022-11-10T14:13:43.503Z,470.53
2022-11-10T14:15:42.518Z,470.53
2022-11-10T14:17:43.019Z,470.53
2022-11-10T14:19:43.795Z,470.53
2022-11-10T14:21:42.751Z,470.53
2022-11-10T14:23:42.624Z,470.53
2022-11-10T14:25:42.805Z,470.53
2022-11-10T14:27:42.522Z,470.53
2022-11-10T14:29:43.514Z,470.53
2022-11-10T14:31:42.930Z,470.53
2022-11-10T14:33:43.149Z,470.53
2022-11-10T14:35:42.886Z,470.53
2022-11-10T14:37:43.523Z,5406.16
2022-11-10T14:39:49.354Z,5453.8
2022-11-10T14:41:43.211Z,5453.8
2022-11-10T14:43:42.538Z,5453.8
2022-11-10T14:45:43.394Z,5453.8
2022-11-10T14:47:45.982Z,5453.8
2022-11-10T14:49:44.394Z,5453.8
2022-11-10T14:51:42.915Z,5453.8
2022-11-10T14:53:43.213Z,5453.8
2022-11-10T14:55:42.529Z,5453.8
2022-11-10T14:57:43.371Z,5453.8
2022-11-10T14:59:43.611Z,5453.8
2022-11-10T15:01:47.155Z,5453.8
2022-11-10T15:03:43.188Z,5453.8
2022-11-10T15:05:42.998Z,5453.8
2022-11-10T15:07:44.065Z,5453.8
2022-11-10T15:09:43.587Z,5453.8
2022-11-10T15:11:43.243Z,5453.8
2022-11-10T15:13:49.559Z,5453.8
2022-11-10T15:15:43.510Z,5453.8
2022-11-10T15:17:43.080Z,5453.8
2022-11-10T15:19:43.728Z,5453.8
2022-11-10T15:21:43.529Z,5453.8
2022-11-10T15:23:45.199Z,5453.8
2022-11-10T15:25:43.191Z,5453.8
2022-11-10T15:27:45.159Z,5453.8
2022-11-10T15:29:44.015Z,5453.8
2022-11-10T15:31:43.421Z,5453.8
2022-11-10T15:33:47.657Z,5453.8
2022-11-10T15:35:43.116Z,5453.8
2022-11-10T15:37:43.342Z,5453.8
2022-11-10T15:39:51.099Z,5453.8
2022-11-10T15:41:49.468Z,5453.8
2022-11-10T15:43:43.697Z,5453.8
2022-11-10T15:45:42.580Z,7703.8
2022-11-10T15:47:48.625Z,7703.8
2022-11-10T15:49:44.053Z,7703.8
2022-11-10T15:51:48.873Z,7703.8
2022-11-10T15:53:43.782Z,7703.8
2022-11-10T15:55:43.244Z,7703.8
2022-11-10T15:57:42.945Z,7703.8
2022-11-10T15:59:47.453Z,7703.8
2022-11-10T16:01:45.204Z,7703.8
2022-11-10T16:03:43.189Z,7703.8
2022-11-10T16:05:45.127Z,7703.8
2022-11-10T16:07:43.608Z,7703.8
2022-11-10T16:09:43.557Z,7703.8
2022-11-10T16:11:43.665Z,7703.8
2022-11-10T16:13:44.165Z,7703.8
2022-11-10T16:15:43.596Z,7703.8
2022-11-10T16:17:43.136Z,7703.8
2022-11-10T16:19:48.722Z,7703.8
2022-11-10T16:21:43.575Z,7703.8
2022-11-10T16:23:42.890Z,7703.8
2022-11-10T16:25:50.554Z,7703.8
2022-11-10T16:27:42.944Z,7703.8
2022-11-10T16:29:43.640Z,7703.8
2022-11-10T16:31:42.973Z,7703.8
2022-11-10T16:33:43.141Z,7703.8
2022-11-10T16:35:42.655Z,7703.8
2022-11-10T16:37:46.491Z,7703.8
2022-11-10T16:39:44.247Z,7703.8
2022-11-10T16:41:43.363Z,7703.8
2022-11-10T16:43:43.384Z,7703.8
2022-11-10T16:45:50.155Z,7703.8
2022-11-10T16:47:43.458Z,7703.8
2022-11-10T16:49:43.283Z,7703.8
2022-11-10T16:51:48.251Z,7703.8
2022-11-10T16:53:42.762Z,7703.8
2022-11-10T16:55:42.931Z,7703.8
2022-11-10T16:57:50.075Z,7703.8
2022-11-10T16:59:43.565Z,7703.8
2022-11-10T17:01:46.858Z,7703.8
2022-11-10T17:03:47.882Z,7703.8
2022-11-10T17:05:43.416Z,7703.8
2022-11-10T17:07:43.382Z,7703.8
2022-11-10T17:09:43.602Z,7703.8
2022-11-10T17:11:43.365Z,7703.8
2022-11-10T17:13:43.059Z,7703.8
2022-11-10T17:15:42.545Z,7703.8
2022-11-10T17:17:42.674Z,7703.8
2022-11-10T17:19:46.093Z,7703.8
2022-11-10T17:21:44.643Z,7703.8
2022-11-10T17:23:44.532Z,7703.8
2022-11-10T17:25:43.380Z,7703.8
2022-11-10T17:27:49.270Z,7703.8
2022-11-10T17:29:43.449Z,7703.8
2022-11-10T17:31:42.986Z,7703.8
2022-11-10T17:34:22.189Z,7703.8
2022-11-10T17:35:50.491Z,7703.8
2022-11-10T17:37:43.296Z,7703.8
2022-11-10T17:39:43.119Z,7703.8
2022-11-10T17:41:43.571Z,7703.8
2022-11-10T17:43:45.809Z,7703.8
2022-11-10T17:45:43.349Z,7703.8
2022-11-10T17:47:42.667Z,7703.8
2022-11-10T17:49:48.414Z,7703.8
2022-11-10T17:51:42.885Z,7703.8
2022-11-10T17:53:43.723Z,7703.8
2022-11-10T17:55:45.919Z,7703.8
2022-11-10T17:57:43.267Z,7703.8
2022-11-10T17:59:42.765Z,7703.8
2022-11-10T18:01:46.097Z,7703.8
2022-11-10T18:03:50.427Z,7703.8
2022-11-10T18:05:42.918Z,7703.8
2022-11-10T18:07:43.722Z,7703.8
2022-11-10T18:09:43.369Z,7703.8
2022-11-10T18:11:43.044Z,7703.8
2022-11-10T18:13:47.697Z,7703.8
2022-11-10T18:15:43.342Z,7703.8
2022-11-10T18:17:43.058Z,7703.8
2022-11-10T18:19:43.616Z,7703.8
2022-11-10T18:21:43.848Z,7703.8
2022-11-10T18:23:43.548Z,7703.8
2022-11-10T18:25:42.694Z,7703.8
2022-11-10T18:27:43.094Z,7703.8
2022-11-10T18:29:43.407Z,7703.8
2022-11-10T18:31:43.258Z,7703.8
2022-11-10T18:33:43.536Z,7703.8
2022-11-10T18:35:42.835Z,7703.8
2022-11-10T18:37:49.309Z,7703.8
2022-11-10T18:39:43.023Z,7703.8
2022-11-10T18:41:43.034Z,7703.8
2022-11-10T18:43:46.144Z,7703.8
2022-11-10T18:45:43.023Z,7703.8
2022-11-10T18:47:43.093Z,7703.8
2022-11-10T18:49:49.861Z,7703.8
2022-11-10T18:51:47.646Z,7703.8
2022-11-10T18:53:49.602Z,7703.8
2022-11-10T18:55:45.567Z,7703.8
2022-11-10T18:57:43.041Z,7703.8
2022-11-10T18:59:43.307Z,7703.8
2022-11-10T19:01:46.193Z,7703.8
2022-11-10T19:03:43.732Z,7703.8
2022-11-10T19:05:53.181Z,7703.8
2022-11-10T19:07:43.577Z,7703.8
2022-11-10T19:09:42.891Z,7703.8
2022-11-10T19:11:43.482Z,7703.8
2022-11-10T19:13:46.296Z,7703.8
2022-11-10T19:15:43.311Z,7703.8
2022-11-10T19:17:43.264Z,7703.8
2022-11-10T19:19:42.793Z,7703.8
2022-11-10T19:21:42.613Z,7703.8
2022-11-10T19:23:44.053Z,7703.8
2022-11-10T19:26:22.531Z,7703.8
2022-11-10T19:27:47.934Z,7703.8
2022-11-10T19:29:42.564Z,7703.8
2022-11-10T19:31:43.326Z,7703.8
2022-11-10T19:33:44.622Z,7703.8
2022-11-10T19:35:43.140Z,7703.8
2022-11-10T19:37:45.828Z,7703.8
2022-11-10T19:39:43.006Z,7703.8
2022-11-10T19:41:43.601Z,7703.8
2022-11-10T19:43:47.330Z,7703.8
2022-11-10T19:45:43.259Z,7703.8
2022-11-10T19:47:43.350Z,7703.8
2022-11-10T19:49:42.875Z,7703.8
2022-11-10T19:51:46.131Z,7703.8
2022-11-10T19:53:43.310Z,7703.8
2022-11-10T19:55:42.836Z,7703.8
2022-11-10T19:57:49.434Z,7703.8
2022-11-10T19:59:43.020Z,7703.8
2022-11-10T20:01:45.439Z,7703.8
2022-11-10T20:03:50.300Z,7703.8
2022-11-10T20:05:42.663Z,7703.8
2022-11-10T20:07:42.925Z,7703.8
2022-11-10T20:09:47.513Z,7703.8
2022-11-10T20:11:42.873Z,7703.8
2022-11-10T20:13:43.277Z,7703.8
2022-11-10T20:15:42.747Z,7703.8
2022-11-10T20:17:43.325Z,7703.8
2022-11-10T20:19:47.778Z,7703.8
2022-11-10T20:21:42.660Z,7703.8
2022-11-10T20:23:43.756Z,7703.8
2022-11-10T20:25:47.538Z,7703.8
2022-11-10T20:27:42.944Z,7703.8
2022-11-10T20:29:43.481Z,7703.8
2022-11-10T20:31:43.203Z,7703.8
2022-11-10T20:33:43.516Z,7703.8
2022-11-10T20:35:42.577Z,7703.8
2022-11-10T20:37:50.081Z,7703.8
2022-11-10T20:39:42.546Z,7703.8
2022-11-10T20:42:12.596Z,7703.8
2022-11-10T20:43:49.913Z,7703.8
2022-11-10T20:45:42.786Z,7703.8
2022-11-10T20:48:13.502Z,7703.8
2022-11-10T20:49:43.329Z,7703.8
2022-11-10T20:51:49.320Z,7703.8
2022-11-10T20:53:43.643Z,7703.8
2022-11-10T20:56:14.368Z,7703.8
2022-11-10T20:57:48.905Z,7703.8
2022-11-10T20:59:43.291Z,7703.8
2022-11-10T21:01:45.764Z,7703.8
2022-11-10T21:03:43.392Z,7703.8
2022-11-10T21:05:50.314Z,7703.8
2022-11-10T21:07:43.152Z,7703.8
2022-11-10T21:09:42.945Z,7703.8
2022-11-10T21:11:44.086Z,7703.8
2022-11-10T21:13:43.322Z,7703.8
2022-11-10T21:15:43.368Z,7703.8
2022-11-10T21:17:44.223Z,7703.8
2022-11-10T21:19:43.436Z,7703.8
2022-11-10T21:21:42.723Z,7703.8
2022-11-10T21:23:48.837Z,7703.8
2022-11-10T21:25:42.705Z,7703.8
2022-11-10T21:27:43.509Z,7703.8
2022-11-10T21:29:43.528Z,7703.8
2022-11-10T21:31:44.491Z,7703.8
2022-11-10T21:33:44.277Z,7703.8
2022-11-10T21:35:49.199Z,7703.8
2022-11-10T21:37:43.311Z,7703.8
2022-11-10T21:39:43.508Z,7703.8
2022-11-10T21:41:42.562Z,7703.8
2022-11-10T21:43:44.063Z,7703.8
2022-11-10T21:45:42.752Z,7703.8
2022-11-10T21:47:42.856Z,7703.8
2022-11-10T21:49:49.626Z,7703.8
2022-11-10T21:51:42.890Z,7703.8
2022-11-10T21:53:43.480Z,7703.8
2022-11-10T21:55:43.376Z,7703.8
2022-11-10T21:57:43.139Z,7703.8
2022-11-10T21:59:42.484Z,7703.8
2022-11-10T22:01:46.880Z,7703.8
2022-11-10T22:03:43.457Z,7703.8
2022-11-10T22:05:42.584Z,7703.8
2022-11-10T22:07:43.678Z,7703.8
2022-11-10T22:09:43.122Z,7703.8
2022-11-10T22:11:42.664Z,7703.8
2022-11-10T22:13:42.909Z,7703.8
2022-11-10T22:15:43.134Z,7703.8
2022-11-10T22:17:43.559Z,7703.8
2022-11-10T22:19:43.155Z,7703.8
2022-11-10T22:21:43.417Z,7703.8
2022-11-10T22:23:45.957Z,7703.8
2022-11-10T22:25:42.454Z,7703.8
2022-11-10T22:27:42.770Z,7703.8
2022-11-10T22:29:43.563Z,7703.8
2022-11-10T22:31:42.628Z,7703.8
2022-11-10T22:33:43.456Z,7703.8
2022-11-10T22:35:43.542Z,7703.8
2022-11-10T22:37:43.071Z,7703.8
2022-11-10T22:39:48.700Z,7703.8
2022-11-10T22:41:42.765Z,7703.8
2022-11-10T22:43:42.738Z,7703.8
2022-11-10T22:45:44.188Z,7703.8
2022-11-10T22:47:42.992Z,7703.8
2022-11-10T22:49:42.679Z,7703.8
2022-11-10T22:51:43.054Z,7703.8
2022-11-10T22:53:43.392Z,7703.8
2022-11-10T22:55:43.117Z,7703.8
2022-11-10T22:57:42.594Z,7703.8
2022-11-10T22:59:45.378Z,7703.8
2022-11-10T23:01:52.143Z,7703.8
2022-11-10T23:03:44.323Z,7703.8
2022-11-10T23:05:43.419Z,7703.8
2022-11-10T23:07:43.020Z,7703.8
2022-11-10T23:09:42.668Z,7703.8
2022-11-10T23:11:43.097Z,7703.8
2022-11-10T23:13:42.996Z,7703.8
2022-11-10T23:15:43.172Z,7703.8
2022-11-10T23:17:43.032Z,7703.8
2022-11-10T23:19:48.095Z,7703.8
2022-11-10T23:21:42.902Z,7703.8
2022-11-10T23:23:42.977Z,7703.8
2022-11-10T23:25:42.983Z,7703.8
2022-11-10T23:27:42.706Z,7703.8
2022-11-10T23:29:42.669Z,7703.8
2022-11-10T23:31:43.024Z,7703.8
2022-11-10T23:33:44.837Z,7703.8
2022-11-10T23:35:42.998Z,7703.8
2022-11-10T23:37:43.508Z,7703.8
2022-11-10T23:39:43.029Z,7703.8
2022-11-10T23:41:43.659Z,7703.8
2022-11-10T23:43:43.382Z,7703.8
2022-11-10T23:46:16.872Z,7703.8
2022-11-10T23:47:49.216Z,7703.8
2022-11-10T23:49:48.195Z,7703.8
2022-11-10T23:51:42.798Z,7703.8
2022-11-10T23:53:43.689Z,7703.8
2022-11-10T23:55:43.643Z,7703.8
2022-11-10T23:57:43.001Z,7703.8
2022-11-10T23:59:43.414Z,7703.8
